sensor_id;sensor_type;location;lat;lon;timestamp;pressure;altitude;pressure_sealevel;temperature;humidity
14383;BME280;7275;50.328;8.720;2023-02-28T00:01:28;100892.94;;;8.21;32.87
14383;BME280;7275;50.328;8.720;2023-02-28T00:03:56;100889.41;;;8.22;32.97
14383;BME280;7275;50.328;8.720;2023-02-28T00:06:24;100892.97;;;8.20;32.82
14383;BME280;7275;50.328;8.720;2023-02-28T00:08:53;100885.94;;;8.19;33.12
14383;BME280;7275;50.328;8.720;2023-02-28T00:11:20;100885.06;;;8.17;33.10
14383;BME280;7275;50.328;8.720;2023-02-28T00:13:48;100885.09;;;8.15;33.04
14383;BME280;7275;50.328;8.720;2023-02-28T00:16:17;100877.19;;;8.15;33.25
14383;BME280;7275;50.328;8.720;2023-02-28T00:18:46;100882.47;;;8.12;33.16
14383;BME280;7275;50.328;8.720;2023-02-28T00:21:14;100879.88;;;8.09;33.21
14383;BME280;7275;50.328;8.720;2023-02-28T00:23:42;100886.94;;;8.07;33.46
14383;BME280;7275;50.328;8.720;2023-02-28T00:26:11;100879.03;;;8.01;33.59
14383;BME280;7275;50.328;8.720;2023-02-28T00:28:39;100879.94;;;8.01;33.36
14383;BME280;7275;50.328;8.720;2023-02-28T00:31:07;100881.69;;;7.99;33.29
14383;BME280;7275;50.328;8.720;2023-02-28T00:33:34;100879.94;;;8.01;33.57
14383;BME280;7275;50.328;8.720;2023-02-28T00:36:04;100886.09;;;7.97;33.55
14383;BME280;7275;50.328;8.720;2023-02-28T00:38:32;100887.03;;;7.93;33.71
14383;BME280;7275;50.328;8.720;2023-02-28T00:41:00;100887.03;;;7.89;33.51
14383;BME280;7275;50.328;8.720;2023-02-28T00:43:34;100885.31;;;7.85;33.75
14383;BME280;7275;50.328;8.720;2023-02-28T00:46:02;100887.13;;;7.81;33.64
14383;BME280;7275;50.328;8.720;2023-02-28T00:48:30;100888.03;;;7.77;33.56
14383;BME280;7275;50.328;8.720;2023-02-28T00:50:58;100887.19;;;7.71;33.78
14383;BME280;7275;50.328;8.720;2023-02-28T00:53:25;100891.59;;;7.69;33.90
14383;BME280;7275;50.328;8.720;2023-02-28T00:55:53;100891.63;;;7.63;33.81
14383;BME280;7275;50.328;8.720;2023-02-28T00:58:21;100890.78;;;7.56;33.74
14383;BME280;7275;50.328;8.720;2023-02-28T01:00:50;100892.56;;;7.51;33.57
14383;BME280;7275;50.328;8.720;2023-02-28T01:03:19;100897.88;;;7.45;33.85
14383;BME280;7275;50.328;8.720;2023-02-28T01:05:47;100895.25;;;7.39;33.86
14383;BME280;7275;50.328;8.720;2023-02-28T01:08:14;100889.19;;;7.34;33.73
14383;BME280;7275;50.328;8.720;2023-02-28T01:10:42;100896.22;;;7.28;34.04
14383;BME280;7275;50.328;8.720;2023-02-28T01:13:10;100890.97;;;7.20;33.79
14383;BME280;7275;50.328;8.720;2023-02-28T01:15:40;100879.59;;;7.13;34.17
14383;BME280;7275;50.328;8.720;2023-02-28T01:18:10;100880.53;;;7.08;34.20
14383;BME280;7275;50.328;8.720;2023-02-28T01:20:38;100893.69;;;7.03;33.91
14383;BME280;7275;50.328;8.720;2023-02-28T01:23:05;100884.06;;;6.98;34.13
14383;BME280;7275;50.328;8.720;2023-02-28T01:25:34;100886.72;;;6.93;33.86
14383;BME280;7275;50.328;8.720;2023-02-28T01:28:01;100884.09;;;6.87;33.87
14383;BME280;7275;50.328;8.720;2023-02-28T01:30:29;100887.63;;;6.83;33.87
14383;BME280;7275;50.328;8.720;2023-02-28T01:32:57;100883.25;;;6.79;34.02
14383;BME280;7275;50.328;8.720;2023-02-28T01:35:26;100878.88;;;6.77;34.00
14383;BME280;7275;50.328;8.720;2023-02-28T01:37:54;100891.16;;;6.72;34.08
14383;BME280;7275;50.328;8.720;2023-02-28T01:40:30;100885.91;;;6.69;34.20
14383;BME280;7275;50.328;8.720;2023-02-28T01:43:23;100882.44;;;6.62;34.04
14383;BME280;7275;50.328;8.720;2023-02-28T01:45:52;100891.19;;;6.58;34.25
14383;BME280;7275;50.328;8.720;2023-02-28T01:48:22;100881.56;;;6.54;34.09
14383;BME280;7275;50.328;8.720;2023-02-28T01:50:55;100884.22;;;6.48;34.68
14383;BME280;7275;50.328;8.720;2023-02-28T01:53:29;100884.22;;;6.43;34.31
14383;BME280;7275;50.328;8.720;2023-02-28T01:55:59;100878.09;;;6.38;34.43
14383;BME280;7275;50.328;8.720;2023-02-28T01:58:27;100884.25;;;6.36;34.41
14383;BME280;7275;50.328;8.720;2023-02-28T02:00:55;100875.50;;;6.29;34.76
14383;BME280;7275;50.328;8.720;2023-02-28T02:03:23;100875.47;;;6.28;34.40
14383;BME280;7275;50.328;8.720;2023-02-28T02:05:51;100878.97;;;6.24;35.04
14383;BME280;7275;50.328;8.720;2023-02-28T02:08:22;100873.75;;;6.22;34.91
14383;BME280;7275;50.328;8.720;2023-02-28T02:10:52;100868.50;;;6.21;34.93
14383;BME280;7275;50.328;8.720;2023-02-28T02:13:38;100872.88;;;6.19;35.11
14383;BME280;7275;50.328;8.720;2023-02-28T02:16:19;100875.50;;;6.16;34.96
14383;BME280;7275;50.328;8.720;2023-02-28T02:18:53;100860.63;;;6.12;34.71
14383;BME280;7275;50.328;8.720;2023-02-28T02:21:36;100867.63;;;6.08;34.96
14383;BME280;7275;50.328;8.720;2023-02-28T02:24:36;100868.50;;;6.01;34.83
14383;BME280;7275;50.328;8.720;2023-02-28T02:27:22;100860.63;;;5.95;35.34
14383;BME280;7275;50.328;8.720;2023-02-28T02:33:26;100867.66;;;5.90;34.66
14383;BME280;7275;50.328;8.720;2023-02-28T02:36:01;100858.03;;;5.88;35.17
14383;BME280;7275;50.328;8.720;2023-02-28T02:38:34;100859.78;;;5.86;34.96
14383;BME280;7275;50.328;8.720;2023-02-28T02:41:09;100859.75;;;5.84;35.42
14383;BME280;7275;50.328;8.720;2023-02-28T02:43:45;100862.38;;;5.84;35.03
14383;BME280;7275;50.328;8.720;2023-02-28T02:46:15;100854.47;;;5.83;35.34
14383;BME280;7275;50.328;8.720;2023-02-28T02:48:45;100858.91;;;5.84;34.98
14383;BME280;7275;50.328;8.720;2023-02-28T02:51:17;100864.97;;;5.83;35.38
14383;BME280;7275;50.328;8.720;2023-02-28T02:53:48;100858.88;;;5.85;35.16
14383;BME280;7275;50.328;8.720;2023-02-28T02:56:19;100857.13;;;5.84;35.33
14383;BME280;7275;50.328;8.720;2023-02-28T02:58:50;100860.63;;;5.82;34.96
14383;BME280;7275;50.328;8.720;2023-02-28T03:01:22;100869.34;;;5.82;34.92
14383;BME280;7275;50.328;8.720;2023-02-28T03:03:56;100869.34;;;5.78;35.12
14383;BME280;7275;50.328;8.720;2023-02-28T03:06:26;100870.19;;;5.78;35.32
14383;BME280;7275;50.328;8.720;2023-02-28T03:08:53;100865.84;;;5.76;35.25
14383;BME280;7275;50.328;8.720;2023-02-28T03:11:21;100871.09;;;5.73;35.31
14383;BME280;7275;50.328;8.720;2023-02-28T03:13:57;100868.44;;;5.69;35.13
14383;BME280;7275;50.328;8.720;2023-02-28T03:16:48;100867.59;;;5.64;35.87
14383;BME280;7275;50.328;8.720;2023-02-28T03:19:45;100869.31;;;5.59;35.73
14383;BME280;7275;50.328;8.720;2023-02-28T03:22:28;100872.81;;;5.57;35.36
14383;BME280;7275;50.328;8.720;2023-02-28T03:25:05;100869.31;;;5.53;35.85
14383;BME280;7275;50.328;8.720;2023-02-28T03:27:38;100864.94;;;5.51;35.80
14383;BME280;7275;50.328;8.720;2023-02-28T03:30:10;100866.69;;;5.50;35.31
14383;BME280;7275;50.328;8.720;2023-02-28T03:32:44;100866.66;;;5.49;35.85
14383;BME280;7275;50.328;8.720;2023-02-28T03:35:18;100867.56;;;5.46;35.74
14383;BME280;7275;50.328;8.720;2023-02-28T03:37:52;100864.06;;;5.44;35.89
14383;BME280;7275;50.328;8.720;2023-02-28T03:40:22;100870.16;;;5.42;35.67
14383;BME280;7275;50.328;8.720;2023-02-28T03:42:55;100864.91;;;5.40;36.09
14383;BME280;7275;50.328;8.720;2023-02-28T03:45:26;100866.66;;;5.38;36.27
14383;BME280;7275;50.328;8.720;2023-02-28T03:47:58;100866.66;;;5.37;35.88
14383;BME280;7275;50.328;8.720;2023-02-28T03:50:33;100865.78;;;5.38;35.97
14383;BME280;7275;50.328;8.720;2023-02-28T03:53:07;100869.28;;;5.38;35.75
14383;BME280;7275;50.328;8.720;2023-02-28T03:55:40;100872.78;;;5.37;35.87
14383;BME280;7275;50.328;8.720;2023-02-28T03:58:14;100869.28;;;5.34;35.76
14383;BME280;7275;50.328;8.720;2023-02-28T04:00:46;100872.78;;;5.37;35.52
14383;BME280;7275;50.328;8.720;2023-02-28T04:03:16;100876.25;;;5.35;35.53
14383;BME280;7275;50.328;8.720;2023-02-28T04:05:49;100873.63;;;5.36;35.82
14383;BME280;7275;50.328;8.720;2023-02-28T04:08:19;100878.88;;;5.35;35.66
14383;BME280;7275;50.328;8.720;2023-02-28T04:10:51;100868.41;;;5.33;35.74
14383;BME280;7275;50.328;8.720;2023-02-28T04:13:21;100872.75;;;5.31;35.41
14383;BME280;7275;50.328;8.720;2023-02-28T04:15:49;100874.50;;;5.31;35.80
14383;BME280;7275;50.328;8.720;2023-02-28T04:18:16;100873.66;;;5.32;35.57
14383;BME280;7275;50.328;8.720;2023-02-28T04:20:44;100883.25;;;5.33;35.65
14383;BME280;7275;50.328;8.720;2023-02-28T04:23:11;100877.13;;;5.32;36.09
14383;BME280;7275;50.328;8.720;2023-02-28T04:25:40;100874.50;;;5.32;35.58
14383;BME280;7275;50.328;8.720;2023-02-28T04:28:08;100878.88;;;5.33;35.82
14383;BME280;7275;50.328;8.720;2023-02-28T04:30:37;100869.25;;;5.31;35.84
14383;BME280;7275;50.328;8.720;2023-02-28T04:33:04;100878.00;;;5.31;35.49
14383;BME280;7275;50.328;8.720;2023-02-28T04:35:32;100873.63;;;5.30;35.53
14383;BME280;7275;50.328;8.720;2023-02-28T04:38:00;100878.00;;;5.31;36.15
14383;BME280;7275;50.328;8.720;2023-02-28T04:40:27;100871.00;;;5.29;35.60
14383;BME280;7275;50.328;8.720;2023-02-28T04:42:56;100873.63;;;5.29;35.69
14383;BME280;7275;50.328;8.720;2023-02-28T04:45:24;100870.16;;;5.31;36.04
14383;BME280;7275;50.328;8.720;2023-02-28T04:47:51;100873.63;;;5.33;35.86
14383;BME280;7275;50.328;8.720;2023-02-28T04:50:20;100871.03;;;5.35;36.10
14383;BME280;7275;50.328;8.720;2023-02-28T04:52:47;100878.91;;;5.39;35.89
14383;BME280;7275;50.328;8.720;2023-02-28T04:55:15;100868.41;;;5.42;36.31
14383;BME280;7275;50.328;8.720;2023-02-28T04:57:43;100878.91;;;5.47;36.29
14383;BME280;7275;50.328;8.720;2023-02-28T05:00:12;100872.78;;;5.51;36.58
14383;BME280;7275;50.328;8.720;2023-02-28T05:02:43;100878.94;;;5.56;35.83
14383;BME280;7275;50.328;8.720;2023-02-28T05:05:10;100891.19;;;5.63;36.12
14383;BME280;7275;50.328;8.720;2023-02-28T05:07:38;100885.06;;;5.68;36.21
14383;BME280;7275;50.328;8.720;2023-02-28T05:10:06;100878.97;;;5.73;35.77
14383;BME280;7275;50.328;8.720;2023-02-28T05:12:34;100886.81;;;5.79;35.76
14383;BME280;7275;50.328;8.720;2023-02-28T05:15:02;100885.06;;;5.81;36.28
14383;BME280;7275;50.328;8.720;2023-02-28T05:17:32;100882.44;;;5.82;36.07
14383;BME280;7275;50.328;8.720;2023-02-28T05:19:59;100886.88;;;5.88;36.34
14383;BME280;7275;50.328;8.720;2023-02-28T05:22:41;100887.75;;;5.90;35.91
14383;BME280;7275;50.328;8.720;2023-02-28T05:25:10;100893.00;;;5.93;35.83
14383;BME280;7275;50.328;8.720;2023-02-28T05:27:39;100895.63;;;5.96;35.88
14383;BME280;7275;50.328;8.720;2023-02-28T05:30:08;100893.88;;;5.98;35.91
14383;BME280;7275;50.328;8.720;2023-02-28T05:32:38;100888.63;;;5.99;36.18
14383;BME280;7275;50.328;8.720;2023-02-28T05:35:09;100893.00;;;6.00;35.87
14383;BME280;7275;50.328;8.720;2023-02-28T05:37:39;100893.88;;;5.99;35.87
14383;BME280;7275;50.328;8.720;2023-02-28T05:40:07;100899.13;;;5.98;35.89
14383;BME280;7275;50.328;8.720;2023-02-28T05:42:36;100904.38;;;5.96;35.90
14383;BME280;7275;50.328;8.720;2023-02-28T05:45:05;100900.00;;;5.95;36.42
14383;BME280;7275;50.328;8.720;2023-02-28T05:47:33;100901.75;;;5.93;36.46
14383;BME280;7275;50.328;8.720;2023-02-28T05:50:03;100906.09;;;5.93;36.14
14383;BME280;7275;50.328;8.720;2023-02-28T05:52:31;100904.38;;;5.92;36.00
14383;BME280;7275;50.328;8.720;2023-02-28T05:54:58;100914.88;;;5.93;35.97
14383;BME280;7275;50.328;8.720;2023-02-28T05:57:26;100909.63;;;5.92;36.15
14383;BME280;7275;50.328;8.720;2023-02-28T05:59:53;100904.38;;;5.90;35.91
14383;BME280;7275;50.328;8.720;2023-02-28T06:02:21;100907.88;;;5.88;36.11
14383;BME280;7275;50.328;8.720;2023-02-28T06:04:49;100906.97;;;5.84;36.51
14383;BME280;7275;50.328;8.720;2023-02-28T06:07:18;100914.84;;;5.84;35.90
14383;BME280;7275;50.328;8.720;2023-02-28T06:09:45;100908.75;;;5.85;35.98
14383;BME280;7275;50.328;8.720;2023-02-28T06:12:13;100903.50;;;5.88;36.29
14383;BME280;7275;50.328;8.720;2023-02-28T06:14:40;100906.13;;;5.90;36.18
14383;BME280;7275;50.328;8.720;2023-02-28T06:17:08;100905.25;;;5.94;36.42
14383;BME280;7275;50.328;8.720;2023-02-28T06:19:37;100907.88;;;5.95;36.39
14383;BME280;7275;50.328;8.720;2023-02-28T06:22:04;100911.38;;;5.97;36.41
14383;BME280;7275;50.328;8.720;2023-02-28T06:24:33;100911.34;;;5.99;36.38
14383;BME280;7275;50.328;8.720;2023-02-28T06:27:01;100912.25;;;5.99;36.15
14383;BME280;7275;50.328;8.720;2023-02-28T06:29:32;100914.84;;;6.01;36.33
14383;BME280;7275;50.328;8.720;2023-02-28T06:32:00;100915.75;;;6.03;36.60
14383;BME280;7275;50.328;8.720;2023-02-28T06:34:28;100917.50;;;6.07;36.67
14383;BME280;7275;50.328;8.720;2023-02-28T06:36:56;100920.13;;;6.11;36.79
14383;BME280;7275;50.328;8.720;2023-02-28T06:39:28;100927.13;;;6.18;36.38
14383;BME280;7275;50.328;8.720;2023-02-28T06:41:57;100919.25;;;6.24;36.69
14383;BME280;7275;50.328;8.720;2023-02-28T06:44:24;100931.50;;;6.33;36.39
14383;BME280;7275;50.328;8.720;2023-02-28T06:46:52;100923.59;;;6.40;36.78
14383;BME280;7275;50.328;8.720;2023-02-28T06:49:19;100928.00;;;6.51;36.66
14383;BME280;7275;50.328;8.720;2023-02-28T06:51:47;100927.09;;;6.61;36.71
14383;BME280;7275;50.328;8.720;2023-02-28T06:54:15;100926.19;;;6.68;36.52
14383;BME280;7275;50.328;8.720;2023-02-28T06:56:42;100931.44;;;6.72;36.38
14383;BME280;7275;50.328;8.720;2023-02-28T06:59:11;100932.34;;;6.76;37.02
14383;BME280;7275;50.328;8.720;2023-02-28T07:01:39;100936.69;;;6.80;36.48
14383;BME280;7275;50.328;8.720;2023-02-28T07:04:07;100937.53;;;6.86;36.47
14383;BME280;7275;50.328;8.720;2023-02-28T07:06:34;100934.06;;;6.90;36.71
14383;BME280;7275;50.328;8.720;2023-02-28T07:09:02;100935.75;;;6.93;36.86
14383;BME280;7275;50.328;8.720;2023-02-28T07:11:31;100941.91;;;6.98;36.51
14383;BME280;7275;50.328;8.720;2023-02-28T07:13:58;100938.38;;;7.03;36.65
14383;BME280;7275;50.328;8.720;2023-02-28T07:16:27;100937.50;;;7.09;36.79
14383;BME280;7275;50.328;8.720;2023-02-28T07:18:55;100943.59;;;7.12;36.66
14383;BME280;7275;50.328;8.720;2023-02-28T07:21:22;100952.34;;;7.16;36.50
14383;BME280;7275;50.328;8.720;2023-02-28T07:23:50;100947.97;;;7.19;36.81
14383;BME280;7275;50.328;8.720;2023-02-28T07:26:19;100936.53;;;7.22;36.68
14383;BME280;7275;50.328;8.720;2023-02-28T07:28:48;100933.91;;;7.22;36.39
14383;BME280;7275;50.328;8.720;2023-02-28T07:31:16;100940.06;;;7.25;36.47
14383;BME280;7275;50.328;8.720;2023-02-28T07:33:46;100943.53;;;7.29;36.66
14383;BME280;7275;50.328;8.720;2023-02-28T07:36:16;100942.66;;;7.33;36.42
14383;BME280;7275;50.328;8.720;2023-02-28T07:38:46;100941.75;;;7.40;36.54
14383;BME280;7275;50.328;8.720;2023-02-28T07:41:14;100936.44;;;7.48;36.32
14383;BME280;7275;50.328;8.720;2023-02-28T07:43:42;100946.03;;;7.56;36.34
14383;BME280;7275;50.328;8.720;2023-02-28T07:46:13;100933.69;;;7.66;36.31
14383;BME280;7275;50.328;8.720;2023-02-28T07:48:42;100943.31;;;7.73;36.21
14383;BME280;7275;50.328;8.720;2023-02-28T07:51:12;100943.28;;;7.82;36.13
14383;BME280;7275;50.328;8.720;2023-02-28T07:53:40;100940.56;;;7.89;36.12
14383;BME280;7275;50.328;8.720;2023-02-28T07:56:07;100941.38;;;7.99;36.31
14383;BME280;7275;50.328;8.720;2023-02-28T07:58:37;100948.34;;;8.11;36.22
14383;BME280;7275;50.328;8.720;2023-02-28T08:01:05;100948.28;;;8.20;36.17
14383;BME280;7275;50.328;8.720;2023-02-28T08:03:34;100942.06;;;8.30;36.40
14383;BME280;7275;50.328;8.720;2023-02-28T08:06:04;100949.88;;;8.39;36.01
14383;BME280;7275;50.328;8.720;2023-02-28T08:08:33;100955.06;;;8.49;35.95
14383;BME280;7275;50.328;8.720;2023-02-28T08:11:01;100949.72;;;8.61;35.99
14383;BME280;7275;50.328;8.720;2023-02-28T08:13:30;100944.31;;;8.73;35.71
14383;BME280;7275;50.328;8.720;2023-02-28T08:15:57;100940.66;;;8.85;35.86
14383;BME280;7275;50.328;8.720;2023-02-28T08:18:25;100943.16;;;8.97;35.82
14383;BME280;7275;50.328;8.720;2023-02-28T08:20:53;100944.81;;;9.09;35.82
14383;BME280;7275;50.328;8.720;2023-02-28T08:23:20;100942.91;;;9.18;35.69
14383;BME280;7275;50.328;8.720;2023-02-28T08:25:54;100944.59;;;9.25;35.49
14383;BME280;7275;50.328;8.720;2023-02-28T08:28:22;100933.09;;;9.32;35.30
14383;BME280;7275;50.328;8.720;2023-02-28T08:30:52;100939.16;;;9.37;35.05
14383;BME280;7275;50.328;8.720;2023-02-28T08:33:20;100932.03;;;9.47;35.17
14383;BME280;7275;50.328;8.720;2023-02-28T08:35:52;100943.34;;;9.55;34.95
14383;BME280;7275;50.328;8.720;2023-02-28T08:38:19;100929.19;;;9.60;35.17
14383;BME280;7275;50.328;8.720;2023-02-28T08:40:47;100934.31;;;9.71;34.84
14383;BME280;7275;50.328;8.720;2023-02-28T08:43:16;100935.91;;;9.83;34.98
14383;BME280;7275;50.328;8.720;2023-02-28T08:45:44;100934.00;;;9.94;34.66
14383;BME280;7275;50.328;8.720;2023-02-28T08:48:11;100925.94;;;10.03;34.68
14383;BME280;7275;50.328;8.720;2023-02-28T08:50:40;100926.69;;;10.12;34.18
14383;BME280;7275;50.328;8.720;2023-02-28T08:53:09;100935.34;;;10.20;34.28
14383;BME280;7275;50.328;8.720;2023-02-28T08:55:36;100929.97;;;10.28;34.04
14383;BME280;7275;50.328;8.720;2023-02-28T08:58:04;100936.81;;;10.39;33.83
14383;BME280;7275;50.328;8.720;2023-02-28T09:00:33;100933.94;;;10.52;33.81
14383;BME280;7275;50.328;8.720;2023-02-28T09:03:00;100943.44;;;10.63;33.90
14383;BME280;7275;50.328;8.720;2023-02-28T09:05:28;100932.63;;;10.77;33.66
14383;BME280;7275;50.328;8.720;2023-02-28T09:07:56;100926.19;;;10.90;33.44
14383;BME280;7275;50.328;8.720;2023-02-28T09:10:23;100933.00;;;11.01;33.43
14383;BME280;7275;50.328;8.720;2023-02-28T09:12:51;100937.09;;;11.19;32.76
14383;BME280;7275;50.328;8.720;2023-02-28T09:15:19;100928.50;;;11.51;32.01
14383;BME280;7275;50.328;8.720;2023-02-28T09:17:48;100924.53;;;12.10;31.57
14383;BME280;7275;50.328;8.720;2023-02-28T09:20:16;100928.03;;;12.79;30.81
14383;BME280;7275;50.328;8.720;2023-02-28T09:22:43;100918.13;;;13.48;30.63
14383;BME280;7275;50.328;8.720;2023-02-28T09:25:11;100913.50;;;14.10;30.33
14383;BME280;7275;50.328;8.720;2023-02-28T09:27:38;100906.06;;;14.74;29.99
14383;BME280;7275;50.328;8.720;2023-02-28T09:30:08;100908.38;;;15.32;29.65
14383;BME280;7275;50.328;8.720;2023-02-28T09:32:36;100908.97;;;15.86;29.56
14383;BME280;7275;50.328;8.720;2023-02-28T09:35:06;100901.56;;;16.58;29.28
14383;BME280;7275;50.328;8.720;2023-02-28T09:37:39;100903.59;;;17.32;28.93
14383;BME280;7275;50.328;8.720;2023-02-28T09:40:09;100898.66;;;17.80;28.46
14383;BME280;7275;50.328;8.720;2023-02-28T09:42:37;100899.25;;;18.22;27.93
14383;BME280;7275;50.328;8.720;2023-02-28T09:45:10;100895.31;;;18.65;27.64
14383;BME280;7275;50.328;8.720;2023-02-28T09:47:45;100889.59;;;19.23;27.15
14383;BME280;7275;50.328;8.720;2023-02-28T09:50:22;100884.84;;;19.76;26.73
14383;BME280;7275;50.328;8.720;2023-02-28T09:52:56;100884.06;;;20.05;26.53
14383;BME280;7275;50.328;8.720;2023-02-28T09:55:28;100881.09;;;20.41;26.10
14383;BME280;7275;50.328;8.720;2023-02-28T09:58:16;100881.31;;;20.82;25.83
14383;BME280;7275;50.328;8.720;2023-02-28T10:00:54;100881.78;;;21.46;25.65
14383;BME280;7275;50.328;8.720;2023-02-28T10:03:29;100876.47;;;21.87;24.85
14383;BME280;7275;50.328;8.720;2023-02-28T10:06:04;100881.09;;;22.11;24.47
14383;BME280;7275;50.328;8.720;2023-02-28T10:08:38;100873.06;;;22.24;23.96
14383;BME280;7275;50.328;8.720;2023-02-28T10:11:14;100872.56;;;22.32;23.44
14383;BME280;7275;50.328;8.720;2023-02-28T10:13:51;100874.22;;;22.34;23.01
14383;BME280;7275;50.328;8.720;2023-02-28T10:16:25;100866.25;;;22.45;22.93
14383;BME280;7275;50.328;8.720;2023-02-28T10:18:56;100874.84;;;22.64;22.75
14383;BME280;7275;50.328;8.720;2023-02-28T10:21:28;100879.06;;;22.81;22.38
14383;BME280;7275;50.328;8.720;2023-02-28T10:24:03;100875.72;;;22.65;22.16
14383;BME280;7275;50.328;8.720;2023-02-28T10:26:32;100881.38;;;21.94;21.81
14383;BME280;7275;50.328;8.720;2023-02-28T10:29:00;100890.56;;;21.76;22.42
14383;BME280;7275;50.328;8.720;2023-02-28T10:31:29;100890.06;;;22.12;22.90
14383;BME280;7275;50.328;8.720;2023-02-28T10:33:56;100881.03;;;22.52;22.60
14383;BME280;7275;50.328;8.720;2023-02-28T10:36:25;100879.03;;;22.29;21.81
14383;BME280;7275;50.328;8.720;2023-02-28T10:38:54;100884.00;;;22.35;22.11
14383;BME280;7275;50.328;8.720;2023-02-28T10:41:30;100867.09;;;22.46;21.99
14383;BME280;7275;50.328;8.720;2023-02-28T10:44:17;100873.06;;;23.02;21.86
14383;BME280;7275;50.328;8.720;2023-02-28T10:46:48;100861.28;;;23.54;21.90
14383;BME280;7275;50.328;8.720;2023-02-28T10:49:19;100861.59;;;24.11;21.64
14383;BME280;7275;50.328;8.720;2023-02-28T10:51:52;100850.50;;;24.61;21.44
14383;BME280;7275;50.328;8.720;2023-02-28T10:54:23;100862.56;;;25.03;20.93
14383;BME280;7275;50.328;8.720;2023-02-28T10:57:15;100850.41;;;25.19;20.88
14383;BME280;7275;50.328;8.720;2023-02-28T10:59:44;100868.63;;;25.17;20.20
14383;BME280;7275;50.328;8.720;2023-02-28T11:02:32;100865.78;;;25.19;20.15
14383;BME280;7275;50.328;8.720;2023-02-28T11:05:26;100861.25;;;25.19;20.31
14383;BME280;7275;50.328;8.720;2023-02-28T11:07:58;100866.50;;;24.99;20.07
14383;BME280;7275;50.328;8.720;2023-02-28T11:10:30;100858.50;;;24.63;19.72
14383;BME280;7275;50.328;8.720;2023-02-28T11:13:01;100851.53;;;24.13;19.87
14383;BME280;7275;50.328;8.720;2023-02-28T11:15:31;100854.91;;;23.91;20.01
14383;BME280;7275;50.328;8.720;2023-02-28T11:18:00;100859.50;;;24.14;20.01
14383;BME280;7275;50.328;8.720;2023-02-28T11:20:31;100854.84;;;24.40;19.84
14383;BME280;7275;50.328;8.720;2023-02-28T11:23:02;100853.47;;;24.69;19.56
14383;BME280;7275;50.328;8.720;2023-02-28T11:25:33;100847.31;;;24.91;19.60
14383;BME280;7275;50.328;8.720;2023-02-28T11:28:03;100845.47;;;25.24;19.46
14383;BME280;7275;50.328;8.720;2023-02-28T11:30:35;100837.50;;;25.67;19.17
14383;BME280;7275;50.328;8.720;2023-02-28T11:33:22;100848.88;;;26.04;18.75
14383;BME280;7275;50.328;8.720;2023-02-28T11:35:51;100837.03;;;26.16;18.87
14383;BME280;7275;50.328;8.720;2023-02-28T11:38:21;100835.50;;;26.34;18.36
14383;BME280;7275;50.328;8.720;2023-02-28T11:41:01;100832.38;;;25.96;18.48
14383;BME280;7275;50.328;8.720;2023-02-28T11:43:40;100838.34;;;25.12;18.54
14383;BME280;7275;50.328;8.720;2023-02-28T11:46:19;100834.09;;;24.17;18.64
14383;BME280;7275;50.328;8.720;2023-02-28T11:48:58;100843.84;;;23.34;18.80
14383;BME280;7275;50.328;8.720;2023-02-28T11:51:34;100840.31;;;22.57;19.51
14383;BME280;7275;50.328;8.720;2023-02-28T11:54:23;100839.47;;;22.03;19.47
14383;BME280;7275;50.328;8.720;2023-02-28T11:56:57;100849.66;;;21.57;20.09
14383;BME280;7275;50.328;8.720;2023-02-28T11:59:38;100852.09;;;21.19;19.79
14383;BME280;7275;50.328;8.720;2023-02-28T12:02:28;100848.72;;;21.30;20.17
14383;BME280;7275;50.328;8.720;2023-02-28T12:05:11;100845.13;;;22.12;20.15
14383;BME280;7275;50.328;8.720;2023-02-28T12:07:49;100840.47;;;22.93;19.95
14383;BME280;7275;50.328;8.720;2023-02-28T12:10:24;100830.59;;;23.67;19.37
14383;BME280;7275;50.328;8.720;2023-02-28T12:13:04;100830.59;;;24.27;19.10
14383;BME280;7275;50.328;8.720;2023-02-28T12:15:50;100828.06;;;24.48;19.04
14383;BME280;7275;50.328;8.720;2023-02-28T12:18:38;100826.81;;;24.41;18.88
14383;BME280;7275;50.328;8.720;2023-02-28T12:21:16;100825.56;;;24.69;19.10
14383;BME280;7275;50.328;8.720;2023-02-28T12:23:59;100828.34;;;24.91;18.94
14383;BME280;7275;50.328;8.720;2023-02-28T12:26:36;100823.47;;;24.61;18.71
14383;BME280;7275;50.328;8.720;2023-02-28T12:29:12;100827.53;;;24.08;18.39
14383;BME280;7275;50.328;8.720;2023-02-28T12:31:47;100822.41;;;23.31;18.72
14383;BME280;7275;50.328;8.720;2023-02-28T12:34:20;100828.41;;;22.86;19.05
14383;BME280;7275;50.328;8.720;2023-02-28T12:36:51;100835.38;;;23.01;19.04
14383;BME280;7275;50.328;8.720;2023-02-28T12:39:25;100828.44;;;23.60;19.19
14383;BME280;7275;50.328;8.720;2023-02-28T12:41:59;100818.50;;;24.20;18.81
14383;BME280;7275;50.328;8.720;2023-02-28T12:44:32;100823.06;;;24.54;18.44
14383;BME280;7275;50.328;8.720;2023-02-28T12:47:03;100817.28;;;24.94;18.60
14383;BME280;7275;50.328;8.720;2023-02-28T12:49:34;100814.22;;;25.54;18.50
14383;BME280;7275;50.328;8.720;2023-02-28T12:52:05;100810.56;;;26.08;17.93
14383;BME280;7275;50.328;8.720;2023-02-28T12:54:43;100800.44;;;26.42;17.64
14383;BME280;7275;50.328;8.720;2023-02-28T12:57:18;100804.75;;;26.65;17.87
14383;BME280;7275;50.328;8.720;2023-02-28T12:59:52;100801.56;;;27.02;17.57
14383;BME280;7275;50.328;8.720;2023-02-28T13:05:30;100799.59;;;27.34;17.33
14383;BME280;7275;50.328;8.720;2023-02-28T13:08:20;100808.47;;;27.36;17.27
14383;BME280;7275;50.328;8.720;2023-02-28T13:10:51;100802.56;;;27.31;17.32
14383;BME280;7275;50.328;8.720;2023-02-28T13:13:24;100794.59;;;27.09;16.83
14383;BME280;7275;50.328;8.720;2023-02-28T13:16:01;100798.34;;;27.08;17.05
14383;BME280;7275;50.328;8.720;2023-02-28T13:18:33;100792.94;;;27.17;16.73
14383;BME280;7275;50.328;8.720;2023-02-28T13:21:03;100795.31;;;27.11;16.98
14383;BME280;7275;50.328;8.720;2023-02-28T13:23:58;100788.41;;;26.97;16.60
14383;BME280;7275;50.328;8.720;2023-02-28T13:29:32;100789.19;;;26.67;16.62
14383;BME280;7275;50.328;8.720;2023-02-28T13:32:35;100784.16;;;26.63;17.10
14383;BME280;7275;50.328;8.720;2023-02-28T13:38:36;100791.09;;;26.56;16.95
14383;BME280;7275;50.328;8.720;2023-02-28T13:41:43;100787.47;;;26.46;16.71
14383;BME280;7275;50.328;8.720;2023-02-28T13:44:14;100782.13;;;26.35;16.62